createdAt,value
2023-04-08T00:00:15.592Z,96328.00
2023-04-08T00:04:21.667Z,96332.00
2023-04-08T00:08:24.659Z,96330.00
2023-04-08T00:12:42.689Z,96337.00
2023-04-08T00:16:54.299Z,96332.00
2023-04-08T00:21:03.968Z,96338.00
2023-04-08T00:25:09.491Z,96339.00
2023-04-08T00:29:15.135Z,96343.00
2023-04-08T00:33:20.994Z,96345.00
2023-04-08T00:37:26.324Z,96336.00
2023-04-08T00:41:32.246Z,96343.00
2023-04-08T00:45:35.491Z,96353.00
2023-04-08T00:49:40.412Z,96353.00
2023-04-08T00:53:56.345Z,96348.00
2023-04-08T00:57:59.889Z,96346.00
2023-04-08T01:02:13.876Z,96350.00
2023-04-08T01:06:24.741Z,96350.00
2023-04-08T01:10:32.458Z,96350.00
2023-04-08T01:14:45.370Z,96352.00
2023-04-08T01:18:53.152Z,96353.00
2023-04-08T01:23:13.510Z,96346.00
2023-04-08T01:27:19.462Z,96350.00
2023-04-08T01:31:25.978Z,96342.00
2023-04-08T01:35:29.428Z,96340.00
2023-04-08T01:39:34.926Z,96344.00
2023-04-08T01:43:46.619Z,96345.00
2023-04-08T01:47:52.867Z,96341.00
2023-04-08T01:51:59.743Z,96346.00
2023-04-08T01:56:07.176Z,96342.00
2023-04-08T02:00:15.490Z,96342.00
2023-04-08T02:04:18.601Z,96346.00
2023-04-08T02:08:21.577Z,96351.00
2023-04-08T02:12:25.061Z,96348.00
2023-04-08T02:16:38.072Z,96344.00
2023-04-08T02:20:46.012Z,96343.00
2023-04-08T02:24:49.896Z,96345.00
2023-04-08T02:28:54.766Z,96347.00
2023-04-08T02:33:00.028Z,96356.00
2023-04-08T02:37:05.866Z,96352.00
2023-04-08T02:41:10.232Z,96348.00
2023-04-08T02:45:22.452Z,96352.00
2023-04-08T02:49:30.078Z,96351.00
2023-04-08T02:53:34.228Z,96354.00
2023-04-08T02:57:39.116Z,96350.00
2023-04-08T03:01:42.167Z,96349.00
2023-04-08T03:05:46.381Z,96346.00
2023-04-08T03:09:49.465Z,96357.00
2023-04-08T03:13:52.242Z,96353.00
2023-04-08T03:17:56.953Z,96351.00
2023-04-08T03:22:01.440Z,96349.00
2023-04-08T03:26:04.261Z,96352.00
2023-04-08T03:30:08.685Z,96352.00
2023-04-08T03:34:11.974Z,96355.00
2023-04-08T03:38:16.593Z,96360.00
2023-04-08T03:42:19.452Z,96360.00
2023-04-08T03:46:23.326Z,96361.00
2023-04-08T03:50:29.216Z,96367.00
2023-04-08T03:54:36.539Z,96368.00
2023-04-08T03:58:43.971Z,96363.00
2023-04-08T04:02:49.045Z,96359.00
2023-04-08T04:06:53.570Z,96366.00
2023-04-08T04:10:59.707Z,96372.00
2023-04-08T04:15:04.482Z,96368.00
2023-04-08T04:19:07.292Z,96374.00
2023-04-08T04:23:10.227Z,96371.00
2023-04-08T04:27:14.592Z,96381.00
2023-04-08T04:31:21.496Z,96379.00
2023-04-08T04:35:24.959Z,96377.00
2023-04-08T04:39:28.509Z,96382.00
2023-04-08T04:43:35.705Z,96383.00
2023-04-08T04:47:41.676Z,96380.00
2023-04-08T04:51:47.125Z,96388.00
2023-04-08T04:55:50.095Z,96385.00
2023-04-08T04:59:54.416Z,96393.00
2023-04-08T05:03:57.498Z,96403.00
2023-04-08T05:08:06.455Z,96402.00
2023-04-08T05:12:09.302Z,96411.00
2023-04-08T05:16:14.811Z,96411.00
2023-04-08T05:20:24.153Z,96414.00
2023-04-08T05:24:27.002Z,96414.00
2023-04-08T05:28:31.471Z,96416.00
2023-04-08T05:32:36.259Z,96431.00
2023-04-08T05:36:39.121Z,96431.00
2023-04-08T05:40:42.289Z,96431.00
2023-04-08T05:44:47.988Z,96434.00
2023-04-08T05:48:55.377Z,96440.00
2023-04-08T05:53:03.133Z,96454.00
2023-04-08T05:57:10.255Z,96448.00
2023-04-08T06:01:16.136Z,96452.00
2023-04-08T06:05:20.848Z,96460.00
2023-04-08T06:09:27.118Z,96474.00
2023-04-08T06:13:33.886Z,96469.00
2023-04-08T06:17:38.323Z,96479.00
2023-04-08T06:21:46.147Z,96474.00
2023-04-08T06:25:48.969Z,96488.00
2023-04-08T06:29:52.288Z,96478.00
2023-04-08T06:33:59.234Z,96491.00
2023-04-08T06:38:04.829Z,96496.00
2023-04-08T06:42:07.691Z,96488.00
2023-04-08T06:46:12.758Z,96494.00
2023-04-08T06:50:15.864Z,96495.00
2023-04-08T06:54:20.421Z,96494.00
2023-04-08T06:58:23.415Z,96506.00
2023-04-08T07:02:28.546Z,96509.00
2023-04-08T07:06:34.337Z,96517.00
2023-04-08T07:10:40.088Z,96522.00
2023-04-08T07:14:44.494Z,96523.00
2023-04-08T07:18:47.744Z,96525.00
2023-04-08T07:22:50.985Z,96527.00
2023-04-08T07:26:57.878Z,96529.00
2023-04-08T07:31:13.881Z,96527.00
2023-04-08T07:35:23.957Z,96530.00
2023-04-08T07:39:26.763Z,96537.00
2023-04-08T07:43:34.515Z,96536.00
2023-04-08T07:47:40.595Z,96535.00
2023-04-08T07:51:43.538Z,96541.00
2023-04-08T07:55:46.421Z,96544.00
2023-04-08T07:59:53.496Z,96546.00
2023-04-08T08:03:56.810Z,96546.00
2023-04-08T08:08:00.394Z,96546.00
2023-04-08T08:12:06.455Z,96557.00
2023-04-08T08:16:13.970Z,96565.00
2023-04-08T08:20:18.960Z,96563.00
2023-04-08T08:24:22.002Z,96569.00
2023-04-08T08:28:25.076Z,96573.00
2023-04-08T08:32:37.339Z,96562.00
2023-04-08T08:36:41.529Z,96565.00
2023-04-08T08:40:45.562Z,96570.00
2023-04-08T08:44:51.099Z,96569.00
2023-04-08T08:48:55.293Z,96567.00
2023-04-08T08:53:01.296Z,96563.00
2023-04-08T08:57:04.055Z,96572.00
2023-04-08T09:01:34.421Z,96581.00
2023-04-08T09:05:51.956Z,96582.00
2023-04-08T09:09:57.929Z,96586.00
2023-04-08T09:14:01.814Z,96596.00
2023-04-08T09:18:11.247Z,96596.00
2023-04-08T09:22:16.606Z,96603.00
2023-04-08T09:26:22.241Z,96593.00
2023-04-08T09:30:27.419Z,96603.00
2023-04-08T09:34:34.239Z,96603.00
2023-04-08T09:38:38.591Z,96595.00
2023-04-08T09:42:45.087Z,96603.00
2023-04-08T09:46:57.671Z,96603.00
2023-04-08T09:51:04.535Z,96607.00
2023-04-08T09:55:12.972Z,96601.00
2023-04-08T09:59:21.809Z,96611.00
2023-04-08T10:03:35.901Z,96611.00
2023-04-08T10:07:44.061Z,96608.00
2023-04-08T10:11:48.798Z,96617.00
2023-04-08T10:15:53.945Z,96615.00
2023-04-08T10:20:05.490Z,96621.00
2023-04-08T10:24:10.862Z,96611.00
2023-04-08T10:28:36.115Z,96613.00
2023-04-08T10:32:45.130Z,96617.00
2023-04-08T10:36:48.859Z,96624.00
2023-04-08T10:40:52.517Z,96622.00
2023-04-08T10:45:06.663Z,96622.00
2023-04-08T10:49:12.424Z,96629.00
2023-04-08T10:53:17.767Z,96627.00
2023-04-08T10:57:28.775Z,96633.00
2023-04-08T11:01:42.143Z,96634.00
2023-04-08T11:05:45.364Z,96637.00
2023-04-08T11:09:50.654Z,96631.00
2023-04-08T11:13:54.119Z,96632.00
2023-04-08T11:18:02.579Z,96638.00
2023-04-08T11:22:15.927Z,96633.00
2023-04-08T11:26:19.196Z,96635.00
2023-04-08T11:30:24.114Z,96634.00
2023-04-08T11:34:31.288Z,96631.00
2023-04-08T11:38:39.959Z,96633.00
2023-04-08T11:42:43.558Z,96621.00
2023-04-08T11:46:58.643Z,96626.00
2023-04-08T11:51:11.211Z,96623.00
2023-04-08T11:55:27.511Z,96628.00
2023-04-08T11:59:30.404Z,96626.00
2023-04-08T12:03:36.498Z,96631.00
2023-04-08T12:07:41.722Z,96625.00
2023-04-08T12:11:44.514Z,96630.00
2023-04-08T12:15:48.868Z,96628.00
2023-04-08T12:19:51.738Z,96635.00
2023-04-08T12:23:55.947Z,96635.00
2023-04-08T12:27:58.854Z,96640.00
2023-04-08T12:32:02.772Z,96641.00
2023-04-08T12:36:05.891Z,96645.00
2023-04-08T12:40:11.081Z,96650.00
2023-04-08T12:44:16.148Z,96644.00
2023-04-08T12:48:19.307Z,96654.00
2023-04-08T12:52:22.414Z,96649.00
2023-04-08T12:56:27.236Z,96647.00
2023-04-08T13:00:30.221Z,96646.00
2023-04-08T13:04:39.299Z,96650.00
2023-04-08T13:08:42.257Z,96647.00
2023-04-08T13:12:49.105Z,96648.00
2023-04-08T13:16:53.844Z,96650.00
2023-04-08T13:20:58.202Z,96650.00
2023-04-08T13:25:02.836Z,96650.00
2023-04-08T13:29:07.270Z,96658.00
2023-04-08T13:33:13.274Z,96658.00
2023-04-08T13:37:18.953Z,96664.00
2023-04-08T13:41:23.349Z,96655.00
2023-04-08T13:45:27.724Z,96655.00
2023-04-08T13:49:33.762Z,96655.00
2023-04-08T13:53:38.183Z,96653.00
2023-04-08T13:57:43.759Z,96654.00
2023-04-08T14:01:54.052Z,96650.00
2023-04-08T14:05:58.173Z,96653.00
2023-04-08T14:10:02.248Z,96656.00
2023-04-08T14:14:05.991Z,96664.00
2023-04-08T14:18:10.769Z,96663.00
2023-04-08T14:22:14.622Z,96675.00
2023-04-08T14:26:17.764Z,96674.00
2023-04-08T14:30:23.518Z,96668.00
2023-04-08T14:34:29.998Z,96667.00
2023-04-08T14:38:53.493Z,96673.00
2023-04-08T14:42:56.737Z,96670.00
2023-04-08T14:46:59.569Z,96676.00
2023-04-08T14:51:04.783Z,96681.00
2023-04-08T14:55:08.438Z,96670.00
2023-04-08T14:59:14.228Z,96668.00
2023-04-08T15:03:18.027Z,96676.00
2023-04-08T15:07:22.687Z,96683.00
2023-04-08T15:11:25.729Z,96682.00
2023-04-08T15:15:34.626Z,96683.00
2023-04-08T15:19:37.494Z,96693.00
2023-04-08T15:23:43.525Z,96687.00
2023-04-08T15:27:48.764Z,96697.00
2023-04-08T15:31:54.599Z,96698.00
2023-04-08T15:35:59.772Z,96704.00
2023-04-08T15:40:04.104Z,96709.00
2023-04-08T15:44:09.735Z,96702.00
2023-04-08T15:48:13.664Z,96700.00
2023-04-08T15:52:16.851Z,96707.00
2023-04-08T15:56:21.396Z,96705.00
2023-04-08T16:00:24.701Z,96706.00
2023-04-08T16:04:27.912Z,96708.00
2023-04-08T16:08:32.622Z,96703.00
2023-04-08T16:12:36.939Z,96721.00
2023-04-08T16:16:45.814Z,96716.00
2023-04-08T16:20:50.172Z,96724.00
2023-04-08T16:24:55.595Z,96728.00
2023-04-08T16:29:06.205Z,96727.00
2023-04-08T16:33:08.973Z,96725.00
2023-04-08T16:37:14.382Z,96735.00
2023-04-08T16:41:20.203Z,96742.00
2023-04-08T16:45:24.382Z,96739.00
2023-04-08T16:49:27.190Z,96757.00
2023-04-08T16:53:32.443Z,96761.00
2023-04-08T16:57:39.178Z,96753.00
2023-04-08T17:01:46.423Z,96766.00
2023-04-08T17:05:49.496Z,96760.00
2023-04-08T17:09:53.046Z,96768.00
2023-04-08T17:13:57.323Z,96764.00
2023-04-08T17:18:04.661Z,96774.00
2023-04-08T17:22:11.198Z,96769.00
2023-04-08T17:26:14.058Z,96787.00
2023-04-08T17:30:20.760Z,96784.00
2023-04-08T17:34:26.363Z,96795.00
2023-04-08T17:38:32.330Z,96799.00
2023-04-08T17:42:36.042Z,96801.00
2023-04-08T17:46:41.678Z,96806.00
2023-04-08T17:50:46.877Z,96804.00
2023-04-08T17:54:52.645Z,96810.00
2023-04-08T17:58:58.417Z,96821.00
2023-04-08T18:03:01.383Z,96820.00
2023-04-08T18:07:05.722Z,96827.00
2023-04-08T18:11:08.594Z,96824.00
2023-04-08T18:15:12.201Z,96831.00
2023-04-08T18:19:16.655Z,96833.00
2023-04-08T18:23:21.362Z,96848.00
2023-04-08T18:27:24.236Z,96848.00
2023-04-08T18:31:27.359Z,96853.00
2023-04-08T18:35:34.355Z,96853.00
2023-04-08T18:39:41.050Z,96856.00
2023-04-08T18:43:47.800Z,96867.00
2023-04-08T18:47:52.499Z,96877.00
2023-04-08T18:52:02.553Z,96878.00
2023-04-08T18:56:14.608Z,96888.00
2023-04-08T19:00:20.429Z,96881.00
2023-04-08T19:04:23.474Z,96892.00
2023-04-08T19:08:34.132Z,96888.00
2023-04-08T19:12:38.262Z,96883.00
2023-04-08T19:16:45.320Z,96898.00
2023-04-08T19:20:50.709Z,96907.00
2023-04-08T19:24:55.206Z,96904.00
2023-04-08T19:28:59.436Z,96909.00
2023-04-08T19:33:02.360Z,96915.00
2023-04-08T19:37:08.639Z,96910.00
2023-04-08T19:41:13.649Z,96910.00
2023-04-08T19:45:20.928Z,96910.00
2023-04-08T19:49:24.223Z,96917.00
2023-04-08T19:53:27.361Z,96920.00
2023-04-08T19:57:30.219Z,96918.00
2023-04-08T20:01:39.423Z,96916.00
2023-04-08T20:05:45.118Z,96912.00
2023-04-08T20:09:50.016Z,96916.00
2023-04-08T20:13:52.801Z,96921.00
2023-04-08T20:18:01.760Z,96928.00
2023-04-08T20:22:05.279Z,96928.00
2023-04-08T20:26:08.555Z,96931.00
2023-04-08T20:30:14.649Z,96927.00
2023-04-08T20:34:18.783Z,96931.00
2023-04-08T20:38:21.707Z,96933.00
2023-04-08T20:42:26.414Z,96931.00
2023-04-08T20:46:29.741Z,96925.00
2023-04-08T20:50:41.515Z,96924.00
2023-04-08T20:54:44.971Z,96922.00
2023-04-08T20:58:47.762Z,96926.00
2023-04-08T21:02:51.070Z,96920.00
2023-04-08T21:07:02.157Z,96922.00
2023-04-08T21:11:05.151Z,96925.00
2023-04-08T21:15:09.249Z,96922.00
2023-04-08T21:19:16.109Z,96925.00
2023-04-08T21:23:22.651Z,96930.00
2023-04-08T21:27:26.932Z,96924.00
2023-04-08T21:31:30.344Z,96922.00
2023-04-08T21:35:36.817Z,96931.00
2023-04-08T21:39:43.298Z,96934.00
2023-04-08T21:43:46.852Z,96928.00
2023-04-08T21:47:53.174Z,96931.00
2023-04-08T21:51:56.155Z,96935.00
2023-04-08T21:56:04.630Z,96936.00
2023-04-08T22:00:13.556Z,96933.00
2023-04-08T22:04:19.701Z,96931.00
2023-04-08T22:08:34.238Z,96934.00
2023-04-08T22:12:39.917Z,96939.00
2023-04-08T22:16:43.045Z,96936.00
2023-04-08T22:20:45.925Z,96928.00
2023-04-08T22:24:49.210Z,96931.00
2023-04-08T22:28:53.712Z,96936.00
2023-04-08T22:32:59.800Z,96933.00
2023-04-08T22:37:03.004Z,96942.00
2023-04-08T22:41:06.052Z,96933.00
2023-04-08T22:45:12.522Z,96934.00
2023-04-08T22:49:19.008Z,96930.00
2023-04-08T22:53:27.509Z,96929.00
2023-04-08T22:57:30.315Z,96930.00
2023-04-08T23:01:35.963Z,96938.00
2023-04-08T23:05:38.998Z,96929.00
2023-04-08T23:09:42.034Z,96933.00
2023-04-08T23:13:47.663Z,96935.00
2023-04-08T23:17:53.791Z,96940.00
2023-04-08T23:21:58.595Z,96930.00
2023-04-08T23:26:03.874Z,96936.00
2023-04-08T23:30:12.364Z,96942.00
2023-04-08T23:34:18.175Z,96936.00
2023-04-08T23:38:21.477Z,96937.00
2023-04-08T23:42:27.266Z,96936.00
2023-04-08T23:46:30.394Z,96934.00
2023-04-08T23:50:34.577Z,96936.00
2023-04-08T23:54:37.373Z,96933.00
2023-04-08T23:58:44.216Z,96930.00
